ADDS TAF Data INFO
IDs: Format: Raw Decoded Include METARs

Data at: 1724 UTC 18 Jan 2018

KALS 181652Z AUTO 00000KT 10SM CLR M04/M17 A3034 RMK AO2 SLP337 T10391172 $

KALS 181130Z 1812/1912 VRB03KT P6SM SKC
  FM182000 18005KT P6SM BKN200